Corpus Christi, TX (78401)

9:50 AM CDT on August 27, 2016 (GMT -0500)
Aransas Cliffs | | Change Station

Elev 46 ft 27.75 °N, 97.38 °W | Updated 59 seconds ago

Partly Cloudy
Partly Cloudy
82.8 °F
Feels Like 91 °F
N
0.0
Wind Variable Wind from NNE
Gusts 5.8 mph

Today
High -- | Low -- °F
--% Chance of Precip.
Yesterday
High -- | Low -- °F
Precip. -- in
Pressure 29.97 in
Visibility 10.0 miles
Clouds Few 2000 ft
Few 7000 ft
Few 25000 ft
Heat Index 91 °F
Dew Point 76 °F
Humidity 81%
Rainfall 0.00 in
Snow Depth Not available.
7:06 AM 7:55 PM
Waning Crescent, 24% visible
METAR KCRP 271351Z 36008KT 10SM FEW020 FEW070 FEW250 28/25 A2997 RMK AO2 SLP147 VIRGA DSNT SE CB DSNT SE TCU DSNT E SE T02780250
Pressure 29.97 in
Visibility 10.0 miles
Clouds Few 2000 ft
Few 7000 ft
Few 25000 ft
Heat Index 91 °F
Dew Point 76 °F
Humidity 81%
Rainfall 0.00 in
Snow Depth Not available.
7:06 AM 7:55 PM
Waning Crescent, 24% visible
METAR KCRP 271351Z 36008KT 10SM FEW020 FEW070 FEW250 28/25 A2997 RMK AO2 SLP147 VIRGA DSNT SE CB DSNT SE TCU DSNT E SE T02780250

10-Day Weather Forecast

Almanac

Astronomy

Aug. 27, 2016 Rise Set
Actual Time
Civil Twilight
Nautical Twilight
Astronomical Twilight
Moon
Length of Visible Light
Length of Day
Tomorrow will be .
, % of the Moon is Illuminated

Today's Extremes

State Highs State Lows

Community

WunderPhotos

Upload Photos

1,935,344 photos uploaded!

WunderBlog® & News

Nearby

Air Quality

  Air Quality AQ Index Pollutant
Not available.

Snow Depth

Station Depth Elevation

Earthquake Activity

City Distance Mag. Time & Date
Minimum magnitude displayed is 2.5.

Coastal Water Temperatures

Place Temperature

Stations

Nearby Weather Stations

Station Location Temp. Windchill Dew Point Humidity Wind Precip. Elev Updated Type
                   

Watches & Warnings

There are currently no watches in effect.